Time;durP1;ratioP1;P1;durP2;ratioP2;P2;SDS_P1;SDS_P2;PMS_P1;PMS_P2;Temp;Humidity;BMP_temperature;BMP_pressure;BME280_temperature;BME280_humidity;BME280_pressure;Samples;Min_cycle;Max_cycle;Signal;HPM_P1;HPM_P2
2021/12/04 00:01:06;;;;;;;3.97;3.60;;;4.00;45.00;;;;;;4974301;28;20422;-89
2021/12/04 00:03:32;;;;;;;3.10;2.90;;;4.10;45.60;;;;;;4974504;28;20418;-89
2021/12/04 00:06:03;;;;;;;3.20;2.90;;;4.00;44.60;;;;;;4973590;28;20969;-89
2021/12/04 00:08:33;;;;;;;3.60;3.30;;;4.00;45.70;;;;;;4973816;28;20186;-90
2021/12/04 00:10:58;;;;;;;3.57;3.07;;;4.10;45.00;;;;;;4973744;28;20422;-89
2021/12/04 00:13:24;;;;;;;3.67;3.37;;;4.10;44.40;;;;;;4973258;28;20425;-89
2021/12/04 00:15:50;;;;;;;5.63;3.27;;;4.10;44.00;;;;;;4975313;28;20179;-89
2021/12/04 00:18:15;;;;;;;3.70;3.40;;;4.10;45.50;;;;;;4973648;28;20182;-88
2021/12/04 00:20:41;;;;;;;3.57;3.37;;;4.10;45.90;;;;;;4973591;28;20210;-89
2021/12/04 00:23:08;;;;;;;3.20;2.97;;;4.00;44.40;;;;;;4974201;28;20178;-90
2021/12/04 00:25:33;;;;;;;3.70;3.40;;;4.10;45.00;;;;;;4973561;28;20481;-90
2021/12/04 00:27:59;;;;;;;3.60;3.30;;;4.10;44.80;;;;;;4973269;28;20438;-89
2021/12/04 00:30:26;;;;;;;3.70;3.40;;;4.10;45.70;;;;;;4974144;28;20210;-90
2021/12/04 00:32:57;;;;;;;3.73;3.43;;;4.20;44.70;;;;;;4973498;28;20228;-90
2021/12/04 00:35:34;;;;;;;3.13;2.83;;;4.10;45.40;;;;;;4973670;28;20441;-90
2021/12/04 00:49:06;;;;;;;3.23;2.93;;;4.20;45.10;;;;;;4975353;28;20437;-90
2021/12/04 00:51:46;;;;;;;4.20;3.47;;;4.30;46.00;;;;;;4975274;28;20414;-88
2021/12/04 00:54:13;;;;;;;3.47;2.67;;;4.30;44.50;;;;;;4973270;28;20406;-89
2021/12/04 00:56:41;;;;;;;3.40;3.10;;;4.20;45.90;;;;;;4973135;28;20422;-90
2021/12/04 00:59:07;;;;;;;3.40;3.10;;;4.30;45.50;;;;;;4973173;28;20419;-89
2021/12/04 01:01:33;;;;;;;2.97;2.77;;;4.30;45.30;;;;;;4972405;28;20466;-89
2021/12/04 01:03:59;;;;;;;3.20;2.90;;;4.20;45.50;;;;;;4972747;28;20910;-88
2021/12/04 01:06:25;;;;;;;3.27;2.97;;;4.30;46.10;;;;;;4972823;28;20465;-89
2021/12/04 01:08:51;;;;;;;6.73;3.40;;;4.30;46.40;;;;;;4972187;28;20445;-90
2021/12/04 01:11:17;;;;;;;3.60;3.33;;;4.30;46.70;;;;;;4972914;28;20262;-90
2021/12/04 01:13:42;;;;;;;3.07;2.87;;;4.30;46.40;;;;;;4971865;28;20266;-91
2021/12/04 01:16:11;;;;;;;3.00;2.80;;;4.30;47.70;;;;;;4972963;28;21001;-88
2021/12/04 01:18:37;;;;;;;3.67;3.37;;;4.40;47.80;;;;;;4972101;28;20425;-90
2021/12/04 01:21:03;;;;;;;3.67;3.37;;;4.40;48.30;;;;;;4972227;28;20505;-89
2021/12/04 01:23:29;;;;;;;2.93;2.73;;;4.40;47.80;;;;;;4972228;28;20558;-89
2021/12/04 01:25:54;;;;;;;4.57;3.40;;;4.40;48.90;;;;;;4972634;28;20203;-88
2021/12/04 01:28:20;;;;;;;3.57;3.30;;;4.30;50.00;;;;;;4972059;28;20438;-89
2021/12/04 01:30:46;;;;;;;3.07;2.80;;;4.30;51.30;;;;;;4973555;28;20246;-89
2021/12/04 01:33:12;;;;;;;3.97;3.27;;;4.30;52.50;;;;;;4971665;28;20544;-90
2021/12/04 01:35:37;;;;;;;3.27;3.07;;;4.30;53.00;;;;;;4972106;28;20182;-90
2021/12/04 01:38:03;;;;;;;3.13;2.80;;;4.30;53.70;;;;;;4971383;28;20178;-89
2021/12/04 01:40:28;;;;;;;3.40;3.10;;;4.30;54.00;;;;;;4972136;28;20167;-88
2021/12/04 01:42:54;;;;;;;4.43;3.87;;;4.30;55.50;;;;;;4971134;28;20182;-90
2021/12/04 01:45:20;;;;;;;2.70;2.50;;;4.30;57.10;;;;;;4972703;28;20229;-87
2021/12/04 01:47:46;;;;;;;3.40;3.10;;;4.20;61.10;;;;;;4972706;28;20465;-87
2021/12/04 01:50:13;;;;;;;3.67;3.37;;;4.10;64.20;;;;;;4974260;28;20178;-90
2021/12/04 01:52:38;;;;;;;3.50;3.20;;;4.00;68.40;;;;;;4977686;28;20506;-90
2021/12/04 01:55:05;;;;;;;3.60;3.30;;;3.90;69.30;;;;;;4987992;28;20425;-89
2021/12/04 01:57:32;;;;;;;3.53;3.10;;;3.90;69.50;;;;;;4986543;28;20260;-90
2021/12/04 01:59:57;;;;;;;4.30;3.90;;;3.90;71.70;;;;;;4974854;28;20422;-90
2021/12/04 02:02:23;;;;;;;3.40;3.10;;;3.90;70.60;;;;;;4972153;28;20429;-90
2021/12/04 02:04:49;;;;;;;3.70;3.40;;;3.80;72.70;;;;;;4971732;28;20414;-89
2021/12/04 02:07:16;;;;;;;5.37;4.10;;;3.70;71.90;;;;;;4972417;28;20749;-89
2021/12/04 02:09:42;;;;;;;3.40;3.20;;;3.70;73.70;;;;;;4972559;28;20449;-90
2021/12/04 02:12:08;;;;;;;3.50;3.20;;;3.70;73.50;;;;;;4973147;28;20456;-90
2021/12/04 02:14:37;;;;;;;3.20;2.90;;;3.70;73.80;;;;;;4973063;28;20858;-88
2021/12/04 02:17:04;;;;;;;3.80;3.07;;;3.70;74.70;;;;;;4972500;28;20857;-89
2021/12/04 02:19:30;;;;;;;4.07;3.67;;;3.70;74.60;;;;;;4972452;28;20634;-89
2021/12/04 02:21:59;;;;;;;4.37;3.83;;;3.70;75.40;;;;;;4972520;28;20846;-89
2021/12/04 02:24:25;;;;;;;3.57;3.27;;;3.70;75.80;;;;;;4971975;28;20433;-90
2021/12/04 02:26:51;;;;;;;3.33;3.13;;;3.60;75.30;;;;;;4971661;28;20854;-89
2021/12/04 02:29:18;;;;;;;4.53;3.50;;;3.60;74.80;;;;;;4971984;28;20183;-90
2021/12/04 02:31:52;;;;;;;2.93;2.70;;;3.60;74.60;;;;;;4972310;28;20793;-89
2021/12/04 02:34:23;;;;;;;3.50;3.20;;;3.60;76.20;;;;;;4971501;28;20501;-89
2021/12/04 02:36:49;;;;;;;4.23;3.83;;;3.60;76.30;;;;;;4971729;28;20429;-90
2021/12/04 02:39:28;;;;;;;3.47;3.17;;;3.60;76.20;;;;;;4987452;28;20418;-89
2021/12/04 02:41:54;;;;;;;3.23;2.97;;;3.60;76.20;;;;;;4971273;28;20426;-90
2021/12/04 02:44:23;;;;;;;3.90;3.60;;;3.60;76.20;;;;;;4971767;28;20429;-86
2021/12/04 02:46:49;;;;;;;3.73;3.43;;;3.60;76.00;;;;;;4970204;28;20464;-90
2021/12/04 02:49:15;;;;;;;3.37;3.17;;;3.60;76.20;;;;;;4970859;28;20417;-90
2021/12/04 02:51:42;;;;;;;3.80;3.50;;;3.60;76.90;;;;;;4970852;28;20910;-90
2021/12/04 02:54:10;;;;;;;4.33;3.87;;;3.50;76.60;;;;;;4970914;28;20414;-89
2021/12/04 02:56:44;;;;;;;3.93;3.63;;;3.50;75.60;;;;;;4969426;28;20433;-85
2021/12/04 02:59:10;;;;;;;3.50;3.20;;;3.50;76.20;;;;;;4969487;28;20429;-85
2021/12/04 03:01:45;;;;;;;5.07;4.67;;;3.50;76.60;;;;;;4970323;28;20426;-85
2021/12/04 03:04:12;;;;;;;4.60;3.90;;;3.50;76.20;;;;;;4970522;28;20426;-85
2021/12/04 03:06:45;;;;;;;3.70;3.40;;;3.50;76.20;;;;;;4971645;28;20458;-85
2021/12/04 03:09:11;;;;;;;4.17;3.83;;;3.50;76.50;;;;;;4970327;28;20414;-86
2021/12/04 03:11:37;;;;;;;4.40;4.00;;;3.50;76.30;;;;;;4970288;28;20952;-85
2021/12/04 03:14:04;;;;;;;4.67;3.60;;;3.50;77.30;;;;;;4969904;28;20485;-85
2021/12/04 03:16:31;;;;;;;4.10;3.80;;;3.40;76.30;;;;;;4969661;28;20430;-86
2021/12/04 03:18:57;;;;;;;4.93;4.53;;;3.40;76.10;;;;;;4969038;28;20422;-85
2021/12/04 03:21:22;;;;;;;6.13;4.80;;;3.40;77.00;;;;;;4969936;28;20836;-84
2021/12/04 03:26:20;;;;;;;4.90;4.40;;;3.40;77.30;;;;;;4972632;28;20742;-89
2021/12/04 03:28:46;;;;;;;4.63;4.23;;;3.40;77.00;;;;;;4971306;28;20922;-90
2021/12/04 03:31:18;;;;;;;4.53;3.90;;;3.30;77.40;;;;;;4970636;28;20426;-89
2021/12/04 03:41:56;;;;;;;3.83;3.50;;;3.50;77.90;;;;;;4971996;28;20473;-89
2021/12/04 03:44:25;;;;;;;4.30;4.00;;;3.50;77.50;;;;;;4969994;28;20938;-89
2021/12/04 03:46:51;;;;;;;3.80;3.50;;;3.50;77.80;;;;;;4969835;28;20276;-90
2021/12/04 03:49:17;;;;;;;4.47;4.17;;;3.50;78.30;;;;;;4971077;28;20418;-89
2021/12/04 03:51:43;;;;;;;3.70;3.40;;;3.50;78.00;;;;;;4971495;28;20472;-90
2021/12/04 03:54:08;;;;;;;4.30;3.70;;;3.60;77.20;;;;;;4970823;28;20206;-90
2021/12/04 03:56:36;;;;;;;4.13;3.83;;;3.50;77.00;;;;;;4970433;28;20186;-89
2021/12/04 03:59:02;;;;;;;4.10;3.80;;;3.60;77.80;;;;;;4971345;28;20178;-90
2021/12/04 04:01:29;;;;;;;4.87;4.40;;;3.60;78.30;;;;;;4971162;28;20903;-90
2021/12/04 04:03:55;;;;;;;4.17;3.80;;;3.60;78.90;;;;;;4970911;28;20422;-89
2021/12/04 04:06:20;;;;;;;4.57;4.27;;;3.60;79.00;;;;;;4970777;28;20470;-89
2021/12/04 04:08:46;;;;;;;4.57;4.17;;;3.60;79.20;;;;;;4973476;28;20174;-89
2021/12/04 04:11:12;;;;;;;4.67;4.27;;;3.70;79.40;;;;;;4974677;28;20210;-89
2021/12/04 04:13:43;;;;;;;4.50;4.10;;;3.70;80.30;;;;;;4974549;28;20194;-89
2021/12/04 04:16:08;;;;;;;4.10;3.77;;;3.70;81.60;;;;;;4974326;28;20942;-89
2021/12/04 04:18:34;;;;;;;4.23;3.93;;;3.70;81.20;;;;;;4974864;28;20426;-90
2021/12/04 04:21:00;;;;;;;4.10;3.23;;;3.70;81.70;;;;;;4974262;28;20278;-89
2021/12/04 04:23:26;;;;;;;4.40;3.43;;;3.70;81.10;;;;;;4974474;28;20175;-90
2021/12/04 04:25:52;;;;;;;3.60;3.30;;;3.70;81.90;;;;;;4974660;28;20179;-89
2021/12/04 04:28:18;;;;;;;3.27;2.97;;;3.80;82.90;;;;;;4974592;28;20437;-89
2021/12/04 04:30:44;;;;;;;4.23;2.90;;;3.80;82.50;;;;;;4973515;28;20185;-89
2021/12/04 04:33:12;;;;;;;3.20;3.00;;;3.80;82.30;;;;;;4973953;28;20229;-89
2021/12/04 04:35:38;;;;;;;2.30;2.20;;;3.90;82.90;;;;;;4990400;28;20179;-90
2021/12/04 04:38:28;;;;;;;2.30;2.20;;;3.90;83.60;;;;;;4973655;28;20418;-89
2021/12/04 05:11:17;;;;;;;8.37;7.63;;;3.50;84.40;;;;;;4974733;28;20937;-86
2021/12/04 05:13:43;;;;;;;9.33;8.53;;;3.60;85.00;;;;;;4971759;28;20414;-84
2021/12/04 05:16:14;;;;;;;8.80;7.90;;;3.60;86.10;;;;;;4970614;28;20414;-86
2021/12/04 05:18:44;;;;;;;8.03;7.33;;;3.70;86.70;;;;;;4970149;28;20410;-85
2021/12/04 05:21:12;;;;;;;8.63;7.83;;;3.70;86.20;;;;;;4969663;28;20469;-86
2021/12/04 05:23:38;;;;;;;12.30;9.37;;;3.70;86.90;;;;;;4970653;28;20406;-86
2021/12/04 05:26:06;;;;;;;9.10;8.20;;;3.70;87.20;;;;;;4986860;28;20473;-85
2021/12/04 05:28:32;;;;;;;7.90;7.10;;;3.60;85.90;;;;;;4970719;28;20604;-85
2021/12/04 05:30:58;;;;;;;8.77;7.97;;;3.60;85.40;;;;;;4971535;28;20442;-86
2021/12/04 05:33:24;;;;;;;8.77;7.60;;;3.60;86.40;;;;;;4971240;28;20473;-87
2021/12/04 05:35:50;;;;;;;8.63;7.83;;;3.60;87.60;;;;;;4971176;28;20422;-85
2021/12/04 05:38:16;;;;;;;9.10;8.20;;;3.60;87.80;;;;;;4971020;28;20411;-84
2021/12/04 05:40:43;;;;;;;9.07;8.17;;;3.70;87.30;;;;;;4971275;28;20513;-84
2021/12/04 05:43:08;;;;;;;8.27;7.47;;;3.70;87.30;;;;;;4971109;28;20985;-86
2021/12/04 05:45:39;;;;;;;8.67;7.87;;;3.70;86.80;;;;;;4971447;28;20427;-84
2021/12/04 05:48:13;;;;;;;7.83;6.97;;;3.70;87.20;;;;;;4971849;28;20460;-85
2021/12/04 05:55:52;;;;;;;7.77;7.07;;;3.80;86.80;;;;;;4973919;28;20765;-84
2021/12/04 05:58:31;;;;;;;8.03;7.23;;;3.80;85.30;;;;;;4972778;28;20406;-85
2021/12/04 06:01:00;;;;;;;9.20;8.30;;;3.80;86.00;;;;;;4972976;28;20398;-85
2021/12/04 06:03:27;;;;;;;9.00;8.10;;;3.80;85.60;;;;;;4972510;28;20489;-85
2021/12/04 06:05:52;;;;;;;7.37;6.47;;;3.90;86.80;;;;;;4972883;28;20406;-85
2021/12/04 06:08:19;;;;;;;8.50;7.70;;;3.90;87.40;;;;;;4972810;28;20936;-84
2021/12/04 06:10:46;;;;;;;7.50;6.80;;;3.90;86.00;;;;;;4972203;28;20229;-84
2021/12/04 06:13:12;;;;;;;7.10;6.50;;;3.90;86.10;;;;;;4972852;28;20422;-84
2021/12/04 06:15:38;;;;;;;7.70;7.10;;;3.90;86.10;;;;;;4973158;28;20429;-84
2021/12/04 06:18:04;;;;;;;7.77;6.97;;;4.00;87.30;;;;;;4972910;28;20182;-83
2021/12/04 06:23:14;;;;;;;8.23;6.90;;;4.00;88.30;;;;;;4974667;28;20952;-90
2021/12/04 06:25:40;;;;;;;7.90;7.20;;;4.10;89.10;;;;;;4972344;28;20421;-87
2021/12/04 06:28:06;;;;;;;8.53;7.30;;;4.10;89.30;;;;;;4971553;28;20738;-86
2021/12/04 06:30:35;;;;;;;8.10;7.40;;;4.10;89.10;;;;;;4972166;28;20175;-91
2021/12/04 06:33:03;;;;;;;8.43;7.43;;;4.10;88.40;;;;;;4965097;28;20261;-87
2021/12/04 06:35:30;;;;;;;8.43;7.63;;;4.10;86.90;;;;;;4972914;28;20476;-87
2021/12/04 06:37:56;;;;;;;5.50;4.67;;;4.10;88.60;;;;;;4972592;28;20422;-88
2021/12/04 06:40:26;;;;;;;3.73;3.43;;;4.20;90.40;;;;;;4972413;28;20473;-84
2021/12/04 06:42:53;;;;;;;1.93;1.47;;;4.40;90.50;;;;;;4972395;28;20237;-84
2021/12/04 06:45:19;;;;;;;1.43;0.70;;;4.50;91.10;;;;;;4972524;28;20426;-84
2021/12/04 06:47:51;;;;;;;1.03;0.93;;;4.70;91.50;;;;;;4967876;28;20593;-84
2021/12/04 06:53:08;;;;;;;0.53;0.50;;;4.90;91.40;;;;;;4973228;28;20429;-88
2021/12/04 06:55:39;;;;;;;0.60;0.57;;;5.00;90.60;;;;;;4968510;28;20435;-87
2021/12/04 06:58:04;;;;;;;0.67;0.67;;;5.00;89.70;;;;;;4976901;28;20434;-89
2021/12/04 07:00:34;;;;;;;0.57;0.50;;;5.10;90.20;;;;;;4952626;29;20444;-86
2021/12/04 07:03:00;;;;;;;1.40;0.80;;;5.10;90.30;;;;;;4953157;29;20559;-89
2021/12/04 07:05:25;;;;;;;0.97;0.97;;;5.20;89.50;;;;;;4969266;28;20415;-88
2021/12/04 07:07:51;;;;;;;0.97;0.50;;;5.20;89.50;;;;;;4970473;28;20461;-88
2021/12/04 07:10:17;;;;;;;1.00;0.63;;;5.30;90.10;;;;;;4970556;28;20179;-85
2021/12/04 07:12:43;;;;;;;1.30;0.53;;;5.30;90.10;;;;;;4970928;28;20221;-87
2021/12/04 07:15:10;;;;;;;0.60;0.50;;;5.30;90.00;;;;;;4987780;28;20237;-89
2021/12/04 07:17:36;;;;;;;1.47;0.70;;;5.30;89.70;;;;;;4972635;28;20577;-90
2021/12/04 07:20:07;;;;;;;1.50;0.53;;;5.40;90.50;;;;;;4973371;28;20433;-89
2021/12/04 07:22:33;;;;;;;1.37;0.50;;;5.40;88.80;;;;;;4972491;28;20517;-90
2021/12/04 07:24:58;;;;;;;0.90;0.90;;;5.30;87.40;;;;;;4971793;28;20604;-85
2021/12/04 07:27:27;;;;;;;0.90;0.50;;;5.40;88.50;;;;;;4971746;28;20473;-84
2021/12/04 07:29:54;;;;;;;0.70;0.60;;;5.40;88.70;;;;;;4973288;28;20854;-84
2021/12/04 07:32:20;;;;;;;0.70;0.60;;;5.50;90.80;;;;;;4976019;28;20505;-84
2021/12/04 07:34:46;;;;;;;0.70;0.70;;;5.50;87.80;;;;;;4971967;28;20414;-84
2021/12/04 07:37:12;;;;;;;0.50;0.50;;;5.50;89.60;;;;;;4972052;28;20429;-86
2021/12/04 07:39:38;;;;;;;0.80;0.50;;;5.50;89.10;;;;;;4971668;28;20183;-86
2021/12/04 07:42:04;;;;;;;1.47;0.77;;;5.50;90.00;;;;;;4972107;28;20491;-86
2021/12/04 07:44:30;;;;;;;0.73;0.60;;;5.50;89.70;;;;;;4975649;28;20186;-86
2021/12/04 07:46:57;;;;;;;1.23;0.60;;;5.50;90.00;;;;;;4975750;28;20493;-86
2021/12/04 07:49:23;;;;;;;3.40;1.50;;;5.70;92.20;;;;;;4975601;28;20425;-86
2021/12/04 07:51:50;;;;;;;4.73;0.83;;;6.80;94.60;;;;;;4975891;28;20469;-85
2021/12/04 07:54:16;;;;;;;1.50;0.67;;;6.80;84.30;;;;;;4973479;28;20532;-84
2021/12/04 07:56:41;;;;;;;1.10;0.70;;;6.70;81.60;;;;;;4976016;28;20437;-86
2021/12/04 07:59:07;;;;;;;0.67;0.67;;;6.60;81.20;;;;;;4975389;28;20417;-86
2021/12/04 08:01:33;;;;;;;0.83;0.80;;;6.40;84.90;;;;;;4975906;28;20179;-86
2021/12/04 08:03:59;;;;;;;0.67;0.67;;;6.30;82.00;;;;;;4975870;28;20182;-86
2021/12/04 08:06:25;;;;;;;0.90;0.90;;;6.30;84.00;;;;;;4975899;28;20203;-85
2021/12/04 08:08:58;;;;;;;1.00;0.80;;;6.50;80.40;;;;;;4975742;28;20453;-86
2021/12/04 08:11:28;;;;;;;0.90;0.87;;;6.30;84.90;;;;;;4976705;28;20493;-84
2021/12/04 08:13:56;;;;;;;0.87;0.63;;;6.20;85.00;;;;;;4976489;28;20816;-84
2021/12/04 08:16:25;;;;;;;1.20;0.83;;;6.20;87.60;;;;;;4976177;28;20421;-84
2021/12/04 08:18:53;;;;;;;1.27;1.00;;;6.30;90.10;;;;;;4975233;28;20453;-82
2021/12/04 08:21:20;;;;;;;1.17;0.90;;;6.10;88.10;;;;;;4975809;28;20450;-85
2021/12/04 08:23:46;;;;;;;0.60;0.60;;;6.30;90.30;;;;;;4974562;28;20429;-83
2021/12/04 08:26:12;;;;;;;3.60;3.07;;;6.20;91.10;;;;;;4976449;28;20469;-84
2021/12/04 08:28:38;;;;;;;2.27;1.30;;;6.10;90.60;;;;;;4976910;28;20433;-83
2021/12/04 08:31:04;;;;;;;1.00;0.63;;;6.10;90.10;;;;;;4979521;28;20445;-87
2021/12/04 08:33:29;;;;;;;1.00;0.60;;;6.00;90.20;;;;;;4977856;28;20590;-84
2021/12/04 08:35:55;;;;;;;1.07;1.00;;;6.00;90.00;;;;;;4975797;28;20178;-84
2021/12/04 08:38:21;;;;;;;1.37;0.83;;;6.00;90.50;;;;;;4976770;28;20183;-89
2021/12/04 08:40:48;;;;;;;0.80;0.80;;;6.10;90.90;;;;;;4975862;28;20422;-89
2021/12/04 08:43:14;;;;;;;1.70;1.60;;;6.10;90.40;;;;;;4977364;28;20422;-89
2021/12/04 08:45:41;;;;;;;1.23;1.13;;;6.10;91.00;;;;;;4978087;28;21032;-90
2021/12/04 08:48:09;;;;;;;1.37;1.07;;;6.10;91.20;;;;;;4979608;28;20480;-88
2021/12/04 08:50:36;;;;;;;1.43;1.17;;;6.10;90.80;;;;;;4978600;28;20418;-89
2021/12/04 08:53:04;;;;;;;1.50;0.90;;;6.10;90.10;;;;;;4978366;28;20414;-89
2021/12/04 08:55:31;;;;;;;1.07;1.03;;;6.20;90.00;;;;;;4977635;28;20420;-90
2021/12/04 08:57:57;;;;;;;2.33;1.93;;;6.20;90.30;;;;;;4977236;28;20920;-89
2021/12/04 09:00:27;;;;;;;1.67;1.00;;;6.20;90.00;;;;;;4975329;28;20509;-89
2021/12/04 09:02:54;;;;;;;1.70;0.80;;;6.20;90.00;;;;;;4975086;28;20422;-89
2021/12/04 09:05:22;;;;;;;2.10;1.00;;;6.20;90.50;;;;;;4976626;28;20460;-89
2021/12/04 09:07:49;;;;;;;1.10;0.90;;;6.20;89.30;;;;;;4975109;28;20453;-89
2021/12/04 09:10:15;;;;;;;1.03;0.97;;;6.30;90.60;;;;;;4975687;28;20418;-88
2021/12/04 09:12:42;;;;;;;1.37;1.27;;;6.30;90.40;;;;;;4978690;28;20933;-88
2021/12/04 09:15:12;;;;;;;1.03;0.93;;;6.40;90.40;;;;;;4978599;28;20922;-88
2021/12/04 09:17:38;;;;;;;3.10;1.30;;;6.40;90.60;;;;;;4976831;28;20437;-87
2021/12/04 09:20:12;;;;;;;1.07;0.97;;;6.40;90.70;;;;;;4976578;28;20841;-87
2021/12/04 09:22:39;;;;;;;1.20;1.10;;;6.40;90.40;;;;;;4975441;28;20477;-89
2021/12/04 09:25:15;;;;;;;1.20;1.10;;;6.50;90.50;;;;;;4975028;28;20430;-88
2021/12/04 10:19:17;;;;;;;1.30;1.20;;;7.30;92.00;;;;;;4976854;28;20405;-91
2021/12/04 10:34:30;;;;;;;1.67;1.50;;;7.60;91.80;;;;;;4975834;28;20943;-90
2021/12/04 10:37:05;;;;;;;0.97;0.97;;;7.70;92.00;;;;;;4974543;28;20771;-91
2021/12/04 10:39:31;;;;;;;1.17;1.07;;;7.80;91.90;;;;;;4973678;28;20425;-91
2021/12/04 10:41:57;;;;;;;1.20;1.10;;;7.80;92.00;;;;;;4974068;28;20918;-90
2021/12/04 10:44:25;;;;;;;0.97;0.80;;;7.80;92.50;;;;;;4974006;28;20179;-92
2021/12/04 10:46:58;;;;;;;2.13;1.00;;;7.80;92.50;;;;;;4974030;28;20465;-91
2021/12/04 10:55:10;;;;;;;1.17;0.73;;;8.20;91.50;;;;;;4970257;28;20403;-91
2021/12/04 10:57:59;;;;;;;2.60;0.90;;;8.20;90.90;;;;;;4961887;28;20776;-91
2021/12/04 11:03:48;;;;;;;0.80;0.80;;;8.20;90.70;;;;;;4964694;28;20478;-91
2021/12/04 11:39:07;;;;;;;2.57;2.07;;;8.80;84.20;;;;;;4973234;28;20461;-91
2021/12/04 11:41:55;;;;;;;1.27;1.10;;;8.80;85.70;;;;;;4975338;28;20871;-92
2021/12/04 11:44:32;;;;;;;1.43;0.70;;;8.90;81.30;;;;;;4975749;28;20557;-91
2021/12/04 11:46:58;;;;;;;1.20;0.83;;;9.10;80.50;;;;;;4975264;28;20838;-91
2021/12/04 11:49:30;;;;;;;2.00;0.60;;;9.00;81.10;;;;;;4973414;28;20453;-89
2021/12/04 11:52:04;;;;;;;12.93;9.37;;;9.00;81.10;;;;;;4969119;28;20529;-89
2021/12/04 11:54:52;;;;;;;4.30;2.97;;;9.00;81.80;;;;;;4967831;28;20477;-88
2021/12/04 11:57:33;;;;;;;4.60;3.50;;;9.00;81.10;;;;;;4964933;28;20885;-89
2021/12/04 12:00:22;;;;;;;1.90;1.33;;;9.00;78.90;;;;;;4964176;28;20822;-90
2021/12/04 12:02:50;;;;;;;3.30;1.50;;;9.00;81.40;;;;;;4964916;28;23015;-88
2021/12/04 12:05:21;;;;;;;1.47;1.37;;;9.10;78.90;;;;;;4967119;28;21042;-88
2021/12/04 12:07:54;;;;;;;1.90;0.90;;;9.10;79.20;;;;;;4964928;28;20504;-89
2021/12/04 12:10:22;;;;;;;2.53;1.07;;;9.20;77.90;;;;;;4965289;28;20457;-88
2021/12/04 12:12:51;;;;;;;0.80;0.60;;;9.20;77.10;;;;;;4963386;28;20966;-88
2021/12/04 12:15:28;;;;;;;3.00;1.40;;;9.10;77.90;;;;;;4963313;28;20527;-89
2021/12/04 12:17:55;;;;;;;2.70;1.20;;;9.10;77.80;;;;;;4963091;28;20489;-89
2021/12/04 12:20:39;;;;;;;1.43;1.20;;;9.20;78.60;;;;;;4962553;28;20518;-89
2021/12/04 12:23:08;;;;;;;0.73;0.60;;;9.10;75.70;;;;;;4963867;28;20527;-90
2021/12/04 12:37:17;;;;;;;1.20;0.97;;;9.10;79.30;;;;;;4953475;28;20461;-88
2021/12/04 12:39:57;;;;;;;1.23;1.00;;;9.10;80.60;;;;;;4960888;28;20512;-87
2021/12/04 12:42:33;;;;;;;1.53;0.80;;;9.10;80.00;;;;;;4961876;28;20460;-88
2021/12/04 12:45:25;;;;;;;1.33;0.77;;;9.20;80.00;;;;;;4961878;28;20535;-88
2021/12/04 12:48:09;;;;;;;0.97;0.73;;;9.20;79.40;;;;;;4960203;28;20473;-89
2021/12/04 12:50:36;;;;;;;1.03;0.90;;;9.10;80.30;;;;;;4961616;28;20453;-87
2021/12/04 12:53:09;;;;;;;0.63;0.63;;;9.10;81.20;;;;;;4961525;28;20454;-89
2021/12/04 12:55:38;;;;;;;2.57;1.50;;;9.20;81.30;;;;;;4960418;28;20457;-88
2021/12/04 12:58:24;;;;;;;0.90;0.90;;;9.10;81.20;;;;;;4960430;28;20465;-87
2021/12/04 13:12:21;;;;;;;1.53;0.73;;;9.20;81.30;;;;;;4966563;28;20461;-92
2021/12/04 13:14:51;;;;;;;1.57;1.10;;;9.20;81.80;;;;;;4965138;28;20532;-89
2021/12/04 13:17:23;;;;;;;0.80;0.70;;;9.20;81.30;;;;;;4966906;28;20538;-92
2021/12/04 13:19:57;;;;;;;1.30;0.90;;;9.20;80.90;;;;;;4970992;28;20973;-92
2021/12/04 13:22:25;;;;;;;0.80;0.80;;;9.20;81.30;;;;;;4968186;28;20462;-93
2021/12/04 13:24:53;;;;;;;0.60;0.60;;;9.10;81.20;;;;;;4968664;28;20992;-94
2021/12/04 13:29:54;;;;;;;0.77;0.77;;;9.00;83.30;;;;;;4969838;28;20462;-92
2021/12/04 13:32:35;;;;;;;0.80;0.80;;;9.00;83.30;;;;;;4969757;28;20516;-92
2021/12/04 13:35:11;;;;;;;2.07;1.70;;;9.00;81.60;;;;;;4972710;28;20805;-90
2021/12/04 13:37:39;;;;;;;1.80;1.60;;;9.10;82.60;;;;;;4973724;28;20465;-91
2021/12/04 13:40:08;;;;;;;1.00;0.90;;;9.10;82.30;;;;;;4976534;28;20490;-86
2021/12/04 13:42:38;;;;;;;2.00;1.10;;;9.10;81.80;;;;;;4969363;28;20469;-90
2021/12/04 13:45:08;;;;;;;0.97;0.80;;;9.00;81.50;;;;;;4956953;28;20492;-90
2021/12/04 13:51:14;;;;;;;2.30;1.03;;;9.00;82.30;;;;;;4984305;28;20429;-94
2021/12/04 13:53:43;;;;;;;1.67;1.20;;;8.90;83.20;;;;;;5010155;28;20430;-91
2021/12/04 13:56:15;;;;;;;1.20;1.10;;;9.00;85.20;;;;;;4999489;28;20438;-90
2021/12/04 13:58:59;;;;;;;0.93;0.93;;;8.90;83.30;;;;;;4975342;28;20458;-90
2021/12/04 14:01:30;;;;;;;2.43;2.23;;;8.90;83.50;;;;;;4978281;28;20444;-94
2021/12/04 14:04:02;;;;;;;1.13;1.03;;;8.90;85.40;;;;;;4975187;28;20481;-94
2021/12/04 14:06:35;;;;;;;1.37;1.10;;;8.90;87.20;;;;;;4975801;28;20462;-92
2021/12/04 14:09:10;;;;;;;1.63;1.20;;;8.90;87.80;;;;;;4980923;28;20496;-93
2021/12/04 14:11:38;;;;;;;4.80;3.63;;;8.80;88.50;;;;;;4956136;28;20496;-92
2021/12/04 14:14:21;;;;;;;1.27;1.10;;;8.90;90.20;;;;;;4972675;28;20426;-93
2021/12/04 14:16:51;;;;;;;2.47;2.27;;;8.90;87.90;;;;;;4970072;28;20456;-90
2021/12/04 14:19:23;;;;;;;1.50;1.37;;;8.80;89.00;;;;;;4968457;28;20462;-92
2021/12/04 14:22:10;;;;;;;1.40;1.30;;;8.90;89.60;;;;;;4971704;28;20458;-90
2021/12/04 14:24:44;;;;;;;1.27;1.17;;;8.80;90.20;;;;;;4978168;28;20965;-89
2021/12/04 14:27:18;;;;;;;1.97;1.50;;;8.80;90.50;;;;;;4970745;28;20466;-90
2021/12/04 14:29:59;;;;;;;1.60;1.50;;;8.80;90.80;;;;;;4944454;28;20478;-88
2021/12/04 14:32:37;;;;;;;1.73;1.50;;;8.80;90.90;;;;;;4947760;28;20447;-89
2021/12/04 14:38:27;;;;;;;2.03;1.03;;;8.80;90.90;;;;;;4960554;29;20419;-93
2021/12/04 14:41:29;;;;;;;2.40;2.20;;;8.80;90.80;;;;;;4958164;28;20419;-92
2021/12/04 14:47:19;;;;;;;2.60;1.43;;;8.80;90.00;;;;;;4960958;29;20473;-94
2021/12/04 14:49:46;;;;;;;2.37;2.23;;;8.90;88.50;;;;;;4958333;28;20510;-91
2021/12/04 14:52:23;;;;;;;1.63;1.53;;;8.70;88.20;;;;;;4950467;28;20559;-92
2021/12/04 14:54:50;;;;;;;1.30;1.20;;;8.80;89.20;;;;;;4964672;28;20458;-88
2021/12/04 14:57:28;;;;;;;0.97;0.90;;;8.70;89.00;;;;;;4950491;28;20459;-90
2021/12/04 15:00:25;;;;;;;1.50;1.10;;;8.70;89.40;;;;;;4947116;28;20857;-91
2021/12/04 15:02:56;;;;;;;0.80;0.80;;;8.60;90.10;;;;;;4951231;28;20455;-92
2021/12/04 15:05:49;;;;;;;1.30;1.10;;;8.60;90.70;;;;;;4964429;28;20446;-91
2021/12/04 15:08:24;;;;;;;1.10;1.00;;;8.70;90.60;;;;;;4972429;28;20941;-91
2021/12/04 15:11:10;;;;;;;1.50;1.40;;;8.60;90.60;;;;;;4973394;28;20465;-93
2021/12/04 15:13:42;;;;;;;2.30;1.93;;;8.70;90.80;;;;;;4969396;28;20454;-91
2021/12/04 15:16:10;;;;;;;1.17;1.07;;;8.60;90.90;;;;;;4953799;28;20469;-91
2021/12/04 15:19:05;;;;;;;1.50;1.40;;;8.70;91.40;;;;;;4953706;28;20462;-93
2021/12/04 15:21:40;;;;;;;1.30;1.20;;;8.60;91.10;;;;;;4940316;28;20431;-91
2021/12/04 15:24:23;;;;;;;1.13;1.03;;;8.60;91.20;;;;;;4968126;28;20513;-92
2021/12/04 15:27:01;;;;;;;1.60;1.33;;;8.60;90.90;;;;;;4966891;28;20670;-92
2021/12/04 15:29:32;;;;;;;1.33;1.00;;;8.60;91.40;;;;;;4965009;28;20513;-93
2021/12/04 15:32:10;;;;;;;1.17;1.03;;;8.70;91.80;;;;;;4965200;28;20458;-91
2021/12/04 15:34:46;;;;;;;1.23;1.13;;;8.70;90.60;;;;;;4946266;28;20454;-93
2021/12/04 15:37:38;;;;;;;1.63;1.37;;;8.70;90.80;;;;;;4964536;28;20446;-93
2021/12/04 15:40:07;;;;;;;3.40;1.10;;;8.60;90.50;;;;;;4966828;28;20825;-92
2021/12/04 15:43:06;;;;;;;1.50;1.40;;;8.60;90.80;;;;;;4962746;28;20740;-92
2021/12/04 15:54:31;;;;;;;1.50;1.40;;;8.60;91.90;;;;;;4949078;29;21058;-92
2021/12/04 15:56:57;;;;;;;1.20;1.10;;;8.50;91.80;;;;;;4975020;28;20442;-94
2021/12/04 15:59:24;;;;;;;1.80;1.60;;;8.50;92.00;;;;;;4981200;28;20457;-91
2021/12/04 16:01:53;;;;;;;1.60;1.40;;;8.50;92.20;;;;;;4974754;28;20194;-88
2021/12/04 16:04:23;;;;;;;2.30;1.33;;;8.50;92.20;;;;;;4963457;28;20981;-87
2021/12/04 16:07:02;;;;;;;2.30;2.10;;;8.40;92.20;;;;;;4967227;28;20907;-89
2021/12/04 16:09:33;;;;;;;2.47;2.27;;;8.30;92.70;;;;;;4961301;28;21165;-89
2021/12/04 16:12:10;;;;;;;3.63;3.33;;;8.40;92.90;;;;;;4967333;28;20464;-87
2021/12/04 16:14:45;;;;;;;3.07;2.40;;;8.40;92.20;;;;;;4965834;28;20511;-90
2021/12/04 16:17:12;;;;;;;3.73;2.60;;;8.30;92.30;;;;;;4965694;28;20476;-84
2021/12/04 16:19:39;;;;;;;3.30;2.00;;;8.30;92.40;;;;;;4969160;28;20815;-91
2021/12/04 16:22:13;;;;;;;2.93;1.57;;;8.30;92.50;;;;;;4989425;28;20433;-96
2021/12/04 16:24:47;;;;;;;2.43;1.40;;;8.30;92.30;;;;;;4998560;28;20426;-96
2021/12/04 16:27:21;;;;;;;2.30;0.97;;;8.40;92.20;;;;;;4993470;28;20460;-95
2021/12/04 16:29:59;;;;;;;1.33;1.23;;;8.40;91.70;;;;;;4995235;28;20437;-94
2021/12/04 16:37:44;;;;;;;3.23;2.93;;;8.30;90.40;;;;;;4993190;28;20490;-94
2021/12/04 16:40:21;;;;;;;6.13;2.33;;;8.30;90.60;;;;;;4993530;28;20426;-94
2021/12/04 16:42:53;;;;;;;2.30;2.10;;;8.20;90.90;;;;;;4993282;28;20466;-94
2021/12/04 16:45:23;;;;;;;2.37;1.90;;;8.20;90.70;;;;;;4990829;28;20426;-93
2021/12/04 16:57:50;;;;;;;3.70;3.40;;;8.10;91.30;;;;;;4997422;28;20433;-95
2021/12/04 16:59:49;;;;;;;3.77;3.47;;;8.10;91.80;;;;;;4996152;28;20419;-96